aviador You're here:

ZSAM Decoded Metar

XIAMEN in CHINA
Report Time2018-05-22 00:00:00
UTC Time2018-05-22 00:33:02
Flight Rules mvfr MVFR
WindVRB at 2 kt
Visibility9999 m
Phenomena:N/A
Clouds:Broken 020 Hf
Broken 033 Hf
Expected CloudBase > 1,600 ft AGL from Temp-Dew spread
Ceiling2,000 ft
Temp28°C (ISA +14)
Dew Point24°C (79% RH)
Heat Index31.9°C
QNH1012 hPa
Density Alt2,484 ft
Elevation456 ft
Report Wrong Elevation
Raw Report
METAR ZSAM 220000Z VRB01MPS 9999 BKN020 BKN033 28/24 Q1012 NOSIG=

Extra information for ZSAM:More info

Metar Taf Metar & Taf Last 4 Metars F.Rules Stats Wind Profile Meteogram Temp Stats Airport Information Weather charts Add Link Nearby VenuesMetar ALERT Operation Metar Decoded Social comments